Brevik Bridge — VRHY7 — position and weather

sailwx.info

Track history (hours):
 
Tides and Currents Weather Stations Pressure Air Temp Water Temp Dewpoint Dewpoint Depression Visibility Wind Speed Wind Dir Waves Ship Positions

Brevik Bridge

Last reported at 2017-Dec-15 11:27 UTC. Time now 2017-Dec-15 11:49 UTC.
Position N 44°24' E 008°54'.

Length 268 m; draft 10.8 m.

Type: Ship (hazmat cat A). MMSI: 477866200.

Date/timePositionNaut miles runAvg speedWind from/ knotsBaromVisibWave heightAir tempDewpointWater temp
2017-Dec-15 11:27N 44°24' E 008°54'0 0.0
2017-Dec-15 11:00N 44°24' E 008°54'0 0.0
2017-Dec-15 10:30N 44°24' E 008°54'0 0.0
2017-Dec-15 10:00N 44°24' E 008°54'0 0.0
2017-Dec-15 09:27N 44°24' E 008°54'0 0.0
2017-Dec-15 08:57N 44°24' E 008°54'0 0.0
2017-Dec-15 08:30N 44°24' E 008°54'0 0.0
2017-Dec-15 08:00N 44°24' E 008°54'0 0.0
2017-Dec-15 07:30N 44°24' E 008°54'0 0.0
2017-Dec-15 07:00N 44°24' E 008°54'0 0.0
2017-Dec-15 06:30N 44°24' E 008°54'0 0.0
2017-Dec-15 06:00N 44°24' E 008°54'0 0.0
2017-Dec-15 05:27N 44°24' E 008°54'0 0.0
2017-Dec-15 05:00N 44°24' E 008°54'0 0.0
2017-Dec-15 04:30N 44°24' E 008°54'0 0.0
2017-Dec-15 04:00N 44°24' E 008°54'0 0.0
2017-Dec-15 02:30N 44°24' E 008°54'0 0.0
2017-Dec-15 00:57N 44°24' E 008°54'0 0.0
2017-Dec-15 00:30N 44°24' E 008°54'0 0.0
2017-Dec-14 18:30N 44°24' E 008°54'0 0.0
2017-Dec-14 18:00N 44°24' E 008°54'0 0.0
2017-Dec-14 17:30N 44°24' E 008°54'0 0.0
2017-Dec-14 17:00N 44°24' E 008°54'0 0.0
2017-Dec-14 16:30N 44°24' E 008°54'0 0.0
2017-Dec-14 16:00N 44°24' E 008°54'0 0.0
2017-Dec-14 15:00N 44°24' E 008°54'0 0.0
2017-Dec-14 14:30N 44°24' E 008°54'0 0.0
2017-Dec-14 14:00N 44°24' E 008°54'0 0.0
2017-Dec-14 13:30N 44°24' E 008°54'0 0.0
2017-Dec-14 13:00N 44°24' E 008°54'0 0.0
2017-Dec-14 12:30N 44°24' E 008°54'0 0.0
2017-Dec-14 12:00N 44°24' E 008°54'0 0.0
2017-Dec-14 11:30N 44°24' E 008°54'0 0.0
2017-Dec-14 10:57N 44°24' E 008°54'0 0.0
2017-Dec-14 10:30N 44°24' E 008°54'0 0.0
2017-Dec-14 10:00N 44°24' E 008°54'0 0.0
2017-Dec-14 09:30N 44°24' E 008°54'0 0.0
2017-Dec-14 08:57N 44°24' E 008°54'0 0.0
2017-Dec-14 08:30N 44°24' E 008°54'0 0.0
2017-Dec-14 08:00N 44°24' E 008°54'0 0.0
2017-Dec-14 07:30N 44°24' E 008°54'0 0.0
2017-Dec-14 07:00N 44°24' E 008°54'0 0.0
2017-Dec-14 06:30N 44°24' E 008°54'1 1.8
2017-Dec-14 06:00N 44°24' E 008°55'3 5.5
2017-Dec-14 05:30N 44°22' E 008°58'2 4.6
2017-Dec-14 05:01N 44°20' E 008°58'2 3.4
2017-Dec-14 04:30N 44°18' E 008°59'4 7.4
2017-Dec-14 04:01N 44°15' E 008°56'3 6.8
2017-Dec-14 03:31N 44°12' E 008°54'0 0.8
2017-Dec-14 03:01N 44°12' E 008°54'0 0.8
2017-Dec-14 02:31N 44°11' E 008°53'0 0.9
2017-Dec-14 02:00N 44°11' E 008°53'1 1.7
2017-Dec-14 01:31N 44°11' E 008°52'1 1.4
2017-Dec-14 01:00N 44°11' E 008°51'1 1.2
2017-Dec-14 00:31N 44°11' E 008°50'1 2.2
2017-Dec-14 00:00N 44°12' E 008°51'3 6.5
2017-Dec-13 23:31N 44°14' E 008°54'3 5.1
2017-Dec-13 23:01N 44°15' E 008°57'1 1.7
2017-Dec-13 22:31N 44°14' E 008°56'1 1.7
2017-Dec-13 22:01N 44°14' E 008°55'1 1.5
2017-Dec-13 21:31N 44°13' E 008°55'1 1.5
2017-Dec-13 21:01N 44°13' E 008°54'1 1.4
2017-Dec-13 20:31N 44°13' E 008°53'1 1.3
2017-Dec-13 20:00N 44°12' E 008°52'0 1.0
2017-Dec-13 19:31N 44°12' E 008°52'0 0.8
2017-Dec-13 19:01N 44°12' E 008°52'0 0.8
2017-Dec-13 18:31N 44°11' E 008°51'0 0.8
2017-Dec-13 18:01N 44°11' E 008°51'0 0.9
2017-Dec-13 17:31N 44°10' E 008°52'5 9.3
2017-Dec-13 17:01N 44°10' E 008°58'612.1
2017-Dec-13 16:31N 44°10' E 009°07'612.2
2017-Dec-13 16:01N 44°08' E 009°14'612.6
2017-Dec-13 15:31N 44°02' E 009°19'612.6
2017-Dec-13 15:00N 43°58' E 009°25'612.3
2017-Dec-13 14:31N 43°53' E 009°31'612.0
2017-Dec-13 14:00N 43°49' E 009°36'5 9.8
2017-Dec-13 13:31N 43°47' E 009°43'612.0
2017-Dec-13 13:01N 43°52' E 009°48'612.0
2017-Dec-13 12:30N 43°58' E 009°51'611.2
2017-Dec-13 12:01N 44°03' E 009°52'3 6.4
2017-Dec-13 11:31N 44°06' E 009°51'0 0.0
2017-Dec-13 11:00N 44°06' E 009°51'0 0.0
2017-Dec-13 10:30N 44°06' E 009°51'0 0.0
2017-Dec-13 10:00N 44°06' E 009°51'0 0.0
2017-Dec-13 09:30N 44°06' E 009°51'0 0.0
2017-Dec-13 09:00N 44°06' E 009°51'0 0.0
2017-Dec-13 08:30N 44°06' E 009°51'0 0.0
2017-Dec-13 08:00N 44°06' E 009°51'0 0.0
2017-Dec-13 07:30N 44°06' E 009°51'0 0.0
2017-Dec-13 07:00N 44°06' E 009°51'0 0.0
2017-Dec-13 06:30N 44°06' E 009°51'0 0.0
2017-Dec-13 06:00N 44°06' E 009°51'0 0.0
2017-Dec-13 05:30N 44°06' E 009°51'0 0.0
2017-Dec-13 05:00N 44°06' E 009°51'0 0.0
2017-Dec-13 04:30N 44°06' E 009°51'0 0.0
2017-Dec-13 04:00N 44°06' E 009°51'0 0.0
2017-Dec-13 03:30N 44°06' E 009°51'0 0.0
2017-Dec-13 03:00N 44°06' E 009°51'0 0.0
2017-Dec-13 02:30N 44°06' E 009°51'0 0.0
2017-Dec-13 02:00N 44°06' E 009°51'0 0.0
2017-Dec-13 01:30N 44°06' E 009°51'0 0.0
2017-Dec-13 01:00N 44°06' E 009°51'0 0.0
2017-Dec-13 00:30N 44°06' E 009°51'0 0.0
2017-Dec-13 00:00N 44°06' E 009°51'0 0.0
2017-Dec-12 23:30N 44°06' E 009°51'0 0.0
2017-Dec-12 22:57N 44°06' E 009°51'0 0.0
2017-Dec-12 22:30N 44°06' E 009°51'0 0.0
2017-Dec-12 22:00N 44°06' E 009°51'0 0.0
2017-Dec-12 21:30N 44°06' E 009°51'0 0.0
2017-Dec-12 20:57N 44°06' E 009°51'0 0.0
2017-Dec-12 20:30N 44°06' E 009°51'0 0.0
2017-Dec-12 19:57N 44°06' E 009°51'0 0.0
2017-Dec-12 19:21N 44°06' E 009°51'0 0.0
2017-Dec-12 19:00N 44°06' E 009°51'0 0.0
2017-Dec-12 18:30N 44°06' E 009°51'0 0.0
2017-Dec-12 18:00N 44°06' E 009°51'0 0.0
2017-Dec-12 17:30N 44°06' E 009°51'0 0.0
2017-Dec-12 16:57N 44°06' E 009°51'0 0.0
2017-Dec-12 16:30N 44°06' E 009°51'0 0.0
2017-Dec-12 16:00N 44°06' E 009°51'0 0.0
2017-Dec-12 15:27N 44°06' E 009°51'0 0.0
2017-Dec-12 15:00N 44°06' E 009°51'0 0.0
2017-Dec-12 14:30N 44°06' E 009°51'0 0.0
2017-Dec-12 14:00N 44°06' E 009°51'0 0.0
2017-Dec-12 13:30N 44°06' E 009°51'0 0.0
2017-Dec-12 13:00N 44°06' E 009°51'1 1.9
2017-Dec-12 12:30N 44°05' E 009°51'4 7.5
2017-Dec-12 12:00N 44°02' E 009°54'2 4.1
2017-Dec-12 11:30N 44°01' E 009°56'5 9.2
2017-Dec-12 11:00N 43°56' E 009°56'1019.1
2017-Dec-12 10:30N 43°47' E 009°52'1121.8
2017-Dec-12 10:01N 43°37' E 009°48'1019.6
2017-Dec-12 09:30N 43°31' E 009°58'815.7
2017-Dec-12 09:01N 43°31' E 010°09'510.2
2017-Dec-12 08:31N 43°32' E 010°15'3 5.4
2017-Dec-12 08:01N 43°34' E 010°18'1 1.4
2017-Dec-12 07:29N 43°35' E 010°18'0 0.0
2017-Dec-12 06:59N 43°35' E 010°18'0 0.0
2017-Dec-12 06:29N 43°35' E 010°18'0 0.0
2017-Dec-12 05:59N 43°35' E 010°18'0 0.0
2017-Dec-12 05:29N 43°35' E 010°18'0 0.0
2017-Dec-12 04:59N 43°35' E 010°18'0 0.0
2017-Dec-12 04:26N 43°35' E 010°18'0 0.0
2017-Dec-12 03:56N 43°35' E 010°18'0 0.0
2017-Dec-12 03:29N 43°35' E 010°18'0 0.0
2017-Dec-12 02:59N 43°35' E 010°18'0 0.0
2017-Dec-12 02:29N 43°35' E 010°18'0 0.0
2017-Dec-12 01:59N 43°35' E 010°18'0 0.0
2017-Dec-12 01:29N 43°35' E 010°18'0 0.0
2017-Dec-12 00:59N 43°35' E 010°18'0 0.0
2017-Dec-12 00:29N 43°35' E 010°18'0 0.0
2017-Dec-11 23:59N 43°35' E 010°18'0 0.0
2017-Dec-11 23:29N 43°35' E 010°18'0 0.0
2017-Dec-11 22:53N 43°35' E 010°18'0 0.0
2017-Dec-11 22:26N 43°35' E 010°18'0 0.0
2017-Dec-11 21:50N 43°35' E 010°18'0 0.0
2017-Dec-11 21:29N 43°35' E 010°18'0 0.0
2017-Dec-11 20:59N 43°35' E 010°18'0 0.0
2017-Dec-11 20:26N 43°35' E 010°18'0 0.0
2017-Dec-11 19:59N 43°35' E 010°18'0 0.0
2017-Dec-11 19:29N 43°35' E 010°18'0 0.0
2017-Dec-11 18:59N 43°35' E 010°18'0 0.0
2017-Dec-11 18:29N 43°35' E 010°18'0 0.0
2017-Dec-11 17:59N 43°35' E 010°18'0 0.0
2017-Dec-11 17:29N 43°35' E 010°18'0 0.0
2017-Dec-11 16:53N 43°35' E 010°18'0 0.0
2017-Dec-11 16:28N 43°35' E 010°18'0 0.0
2017-Dec-11 15:59N 43°35' E 010°18'0 0.0
2017-Dec-11 15:29N 43°35' E 010°18'0 0.0
2017-Dec-11 14:59N 43°35' E 010°18'0 0.0
2017-Dec-11 14:29N 43°35' E 010°18'0 0.0
2017-Dec-11 13:59N 43°35' E 010°18'0 0.0
2017-Dec-11 13:29N 43°35' E 010°18'0 0.0
2017-Dec-11 12:59N 43°35' E 010°18'0 0.0
2017-Dec-11 12:29N 43°35' E 010°18'0 0.0
2017-Dec-11 11:56N 43°35' E 010°18'0 0.0
2017-Dec-11 11:29N 43°35' E 010°18'0 0.0
2017-Dec-11 10:59N 43°35' E 010°18'0 0.0
2017-Dec-11 10:29N 43°35' E 010°18'0 0.0
2017-Dec-11 09:58N 43°35' E 010°18'0 0.0
2017-Dec-11 09:26N 43°35' E 010°18'0 0.0
2017-Dec-11 08:56N 43°35' E 010°18'0 0.0
2017-Dec-11 08:20N 43°35' E 010°18'0 0.0
2017-Dec-11 07:49N 43°35' E 010°18'0 0.0
2017-Dec-11 07:29N 43°35' E 010°18'0 0.0
2017-Dec-11 06:59N 43°35' E 010°18'0 0.0
2017-Dec-11 06:29N 43°35' E 010°18'0 0.0
2017-Dec-11 05:59N 43°35' E 010°18'0 0.0
2017-Dec-11 05:23N 43°35' E 010°18'0 0.0
2017-Dec-11 04:59N 43°35' E 010°18'0 0.0
2017-Dec-11 04:29N 43°35' E 010°18'0 0.0
2017-Dec-11 03:58N 43°35' E 010°18'0 0.0
2017-Dec-11 03:29N 43°35' E 010°18'0 0.0
2017-Dec-11 02:56N 43°35' E 010°18'0 0.0
2017-Dec-11 02:29N 43°35' E 010°18'0 0.0
2017-Dec-11 01:59N 43°35' E 010°18'0 0.0
2017-Dec-11 01:26N 43°35' E 010°18'0 0.0
2017-Dec-11 00:56N 43°35' E 010°18'0 0.0
2017-Dec-11 00:29N 43°35' E 010°18'0 0.0
2017-Dec-10 23:59N 43°35' E 010°18'0 0.0
2017-Dec-10 23:29N 43°35' E 010°18'0 0.0
2017-Dec-10 22:59N 43°35' E 010°18'0 0.0
2017-Dec-10 22:29N 43°35' E 010°18'0 0.0
2017-Dec-10 21:56N 43°35' E 010°18'0 0.0
2017-Dec-10 21:29N 43°35' E 010°18'0 0.0
2017-Dec-10 20:59N 43°35' E 010°18'0 0.0
2017-Dec-10 20:29N 43°35' E 010°18'0 0.0
2017-Dec-10 19:56N 43°35' E 010°18'0 0.0
2017-Dec-10 19:29N 43°35' E 010°18'0 0.0
2017-Dec-10 18:56N 43°35' E 010°18'0 0.0
2017-Dec-10 18:25N 43°35' E 010°18'0 0.0
2017-Dec-10 17:59N 43°35' E 010°18'0 0.0
2017-Dec-10 17:29N 43°35' E 010°18'0 0.0
2017-Dec-10 16:56N 43°35' E 010°18'0 0.0
2017-Dec-10 16:17N 43°35' E 010°18'0 0.0
2017-Dec-10 15:50N 43°35' E 010°18'0 0.0
2017-Dec-10 15:26N 43°35' E 010°18'0 0.1
2017-Dec-10 14:56N 43°35' E 010°18'0 0.1
2017-Dec-10 14:29N 43°35' E 010°18'0 0.0
2017-Dec-10 13:59N 43°35' E 010°18'0 0.0
2017-Dec-10 13:29N 43°35' E 010°18'0 0.0
2017-Dec-10 12:59N 43°35' E 010°18'0 0.0
2017-Dec-10 12:26N 43°35' E 010°18'0 0.0
2017-Dec-10 11:59N 43°35' E 010°18'0 0.0
2017-Dec-10 11:26N 43°35' E 010°18'0 0.0
2017-Dec-10 10:53N 43°35' E 010°18'0 0.0
2017-Dec-10 10:29N 43°35' E 010°18'0 0.0
2017-Dec-10 09:59N 43°35' E 010°18'0 0.0
2017-Dec-10 09:29N 43°35' E 010°18'0 0.0
2017-Dec-10 08:59N 43°35' E 010°18'0 0.0
2017-Dec-10 08:29N 43°35' E 010°18'0 0.0
2017-Dec-10 07:59N 43°35' E 010°18'0 0.0
2017-Dec-10 07:29N 43°35' E 010°18'0 0.0
2017-Dec-10 06:55N 43°35' E 010°18'0 0.0
2017-Dec-10 06:29N 43°35' E 010°18'0 0.0
2017-Dec-10 05:58N 43°35' E 010°18'0 0.0
2017-Dec-10 05:29N 43°35' E 010°18'0 0.0
2017-Dec-10 04:59N 43°35' E 010°18'0 0.0
2017-Dec-10 04:29N 43°35' E 010°18'0 0.1
2017-Dec-10 03:58N 43°35' E 010°18'0 0.1
2017-Dec-10 03:29N 43°35' E 010°18'0 0.0
2017-Dec-10 02:59N 43°35' E 010°18'0 0.0
2017-Dec-10 02:29N 43°35' E 010°18'0 0.0
2017-Dec-10 01:58N 43°35' E 010°18'0 0.0
2017-Dec-10 01:29N 43°35' E 010°18'0 0.0
2017-Dec-10 00:53N 43°35' E 010°18'0 0.0
2017-Dec-10 00:11N 43°35' E 010°18'0 0.1
2017-Dec-09 23:59N 43°35' E 010°18'0 0.0
2017-Dec-09 23:29N 43°35' E 010°18'0 0.0
2017-Dec-09 22:59N 43°35' E 010°18'0 0.0
2017-Dec-09 22:29N 43°35' E 010°18'0 0.0
2017-Dec-09 21:53N 43°35' E 010°18'0 0.0
2017-Dec-09 21:28N 43°35' E 010°18'0 0.0
2017-Dec-09 20:59N 43°35' E 010°18'0 0.0
2017-Dec-09 20:29N 43°35' E 010°18'0 0.0
2017-Dec-09 19:59N 43°35' E 010°18'0 0.0
2017-Dec-09 19:29N 43°35' E 010°18'0 0.0
2017-Dec-09 18:56N 43°35' E 010°18'0 0.0
2017-Dec-09 18:23N 43°35' E 010°18'0 0.1
2017-Dec-09 18:00N 43°35' E 010°18'2 3.5
2017-Dec-09 17:30N 43°33' E 010°17'5 8.5
2017-Dec-09 16:56N 43°29' E 010°13'3 6.7
2017-Dec-09 16:30N 43°28' E 010°10'2 4.1
2017-Dec-09 16:00N 43°27' E 010°07'2 3.6
2017-Dec-09 15:26N 43°25' E 010°05'1 1.9
2017-Dec-09 15:00N 43°26' E 010°05'1 1.8
2017-Dec-09 14:31N 43°27' E 010°04'1 2.7
2017-Dec-09 14:01N 43°26' E 010°05'5 9.2
2017-Dec-09 13:31N 43°22' E 010°09'510.0
2017-Dec-09 13:01N 43°18' E 010°13'510.5
2017-Dec-09 12:30N 43°14' E 010°17'2 0.7
2017-Dec-09 09:46N 43°15' E 010°16'1 2.2
2017-Dec-09 09:25N 43°16' E 010°15'1 2.1
2017-Dec-09 08:43N 43°17' E 010°14'1 2.1
2017-Dec-09 08:28N 43°17' E 010°13'1 1.6
2017-Dec-09 07:59N 43°18' E 010°12'1 1.3
2017-Dec-09 07:27N 43°18' E 010°12'1 1.4
2017-Dec-09 06:57N 43°19' E 010°11'1 1.4
2017-Dec-09 06:29N 43°19' E 010°10'1 1.3
2017-Dec-09 05:59N 43°20' E 010°10'1 1.2
2017-Dec-09 05:29N 43°20' E 010°09'1 1.6
2017-Dec-09 04:58N 43°21' E 010°08'1 1.6
2017-Dec-09 04:31N 43°21' E 010°07'1 1.3
2017-Dec-09 03:59N 43°21' E 010°07'1 1.6
2017-Dec-09 03:27N 43°22' E 010°06'1 1.4
2017-Dec-09 03:00N 43°22' E 010°05'0 0.6
2017-Dec-09 02:31N 43°22' E 010°05'1 1.2
2017-Dec-09 02:00N 43°22' E 010°04'3 6.8
2017-Dec-09 01:30N 43°22' E 010°09'4 7.7
2017-Dec-09 01:00N 43°23' E 010°14'4 7.6
2017-Dec-09 00:30N 43°25' E 010°19'1 2.9
2017-Dec-09 00:01N 43°25' E 010°17'1 2.5
2017-Dec-08 23:31N 43°25' E 010°15'1 2.5
2017-Dec-08 23:00N 43°24' E 010°14'1 2.6
2017-Dec-08 22:29N 43°24' E 010°12'1 2.8
2017-Dec-08 21:59N 43°24' E 010°10'1 2.8
2017-Dec-08 21:30N 43°23' E 010°08'1 2.7
2017-Dec-08 21:00N 43°23' E 010°06'1 2.6
2017-Dec-08 20:30N 43°23' E 010°04'1 2.7
2017-Dec-08 20:01N 43°23' E 010°03'1 2.5
2017-Dec-08 19:25N 43°21' E 010°02'1 2.7
2017-Dec-08 19:01N 43°21' E 010°03'5 9.5
2017-Dec-08 18:31N 43°23' E 010°09'510.1
2017-Dec-08 18:00N 43°26' E 010°15'1 1.0
2017-Dec-08 17:28N 43°26' E 010°16'1 2.4
2017-Dec-08 17:01N 43°26' E 010°15'1 2.3
2017-Dec-08 16:31N 43°25' E 010°13'1 2.4
2017-Dec-08 16:00N 43°25' E 010°12'1 2.8
2017-Dec-08 15:30N 43°24' E 010°10'2 2.6
2017-Dec-08 14:55N 43°24' E 010°08'1 2.8
2017-Dec-08 14:27N 43°22' E 010°07'410.1
2017-Dec-08 14:01N 43°18' E 010°09'611.3
2017-Dec-08 13:28N 43°12' E 010°08'511.6
2017-Dec-08 13:00N 43°07' E 010°06'611.9
2017-Dec-08 12:31N 43°01' E 010°05'1811.6
2017-Dec-08 10:59N 42°43' E 010°03'612.0
2017-Dec-08 10:31N 42°40' E 010°08'611.7
2017-Dec-08 10:00N 42°36' E 010°14'712.0
2017-Dec-08 09:27N 42°31' E 010°21'1416.9
2017-Dec-08 08:37N 42°20' E 010°33'217.1
2017-Dec-08 08:30N 42°19' E 010°35'20617.7
2017-Dec-07 20:54N 40°32' E 014°29'918.6
2017-Dec-07 20:25N 40°36' E 014°40'  
Track history (hours):
 
Tides and Currents Weather Stations Pressure Air Temp Water Temp Dewpoint Dewpoint Depression Visibility Wind Speed Wind Dir Waves Ship Positions

Brevik Bridge

Last reported at 2017-Dec-15 11:27 UTC. Time now 2017-Dec-15 11:49 UTC.
Position N 44°24' E 008°54'.

Length 268 m; draft 10.8 m.

Type: Ship (hazmat cat A). MMSI: 477866200.

Date/timePositionNaut miles runAvg speedWind from/ knotsBaromVisibWave heightAir tempDewpointWater temp
2017-Dec-15 11:27N 44°24' E 008°54'0 0.0
2017-Dec-15 11:00N 44°24' E 008°54'0 0.0
2017-Dec-15 10:30N 44°24' E 008°54'0 0.0
2017-Dec-15 10:00N 44°24' E 008°54'0 0.0
2017-Dec-15 09:27N 44°24' E 008°54'0 0.0
2017-Dec-15 08:57N 44°24' E 008°54'0 0.0
2017-Dec-15 08:30N 44°24' E 008°54'0 0.0
2017-Dec-15 08:00N 44°24' E 008°54'0 0.0
2017-Dec-15 07:30N 44°24' E 008°54'0 0.0
2017-Dec-15 07:00N 44°24' E 008°54'0 0.0
2017-Dec-15 06:30N 44°24' E 008°54'0 0.0
2017-Dec-15 06:00N 44°24' E 008°54'0 0.0
2017-Dec-15 05:27N 44°24' E 008°54'0 0.0
2017-Dec-15 05:00N 44°24' E 008°54'0 0.0
2017-Dec-15 04:30N 44°24' E 008°54'0 0.0
2017-Dec-15 04:00N 44°24' E 008°54'0 0.0
2017-Dec-15 02:30N 44°24' E 008°54'0 0.0
2017-Dec-15 00:57N 44°24' E 008°54'0 0.0
2017-Dec-15 00:30N 44°24' E 008°54'0 0.0
2017-Dec-14 18:30N 44°24' E 008°54'0 0.0
2017-Dec-14 18:00N 44°24' E 008°54'0 0.0
2017-Dec-14 17:30N 44°24' E 008°54'0 0.0
2017-Dec-14 17:00N 44°24' E 008°54'0 0.0
2017-Dec-14 16:30N 44°24' E 008°54'0 0.0
2017-Dec-14 16:00N 44°24' E 008°54'0 0.0
2017-Dec-14 15:00N 44°24' E 008°54'0 0.0
2017-Dec-14 14:30N 44°24' E 008°54'0 0.0
2017-Dec-14 14:00N 44°24' E 008°54'0 0.0
2017-Dec-14 13:30N 44°24' E 008°54'0 0.0
2017-Dec-14 13:00N 44°24' E 008°54'0 0.0
2017-Dec-14 12:30N 44°24' E 008°54'0 0.0
2017-Dec-14 12:00N 44°24' E 008°54'0 0.0
2017-Dec-14 11:30N 44°24' E 008°54'0 0.0
2017-Dec-14 10:57N 44°24' E 008°54'0 0.0
2017-Dec-14 10:30N 44°24' E 008°54'0 0.0
2017-Dec-14 10:00N 44°24' E 008°54'0 0.0
2017-Dec-14 09:30N 44°24' E 008°54'0 0.0
2017-Dec-14 08:57N 44°24' E 008°54'0 0.0
2017-Dec-14 08:30N 44°24' E 008°54'0 0.0
2017-Dec-14 08:00N 44°24' E 008°54'0 0.0
2017-Dec-14 07:30N 44°24' E 008°54'0 0.0
2017-Dec-14 07:00N 44°24' E 008°54'0 0.0
2017-Dec-14 06:30N 44°24' E 008°54'1 1.8
2017-Dec-14 06:00N 44°24' E 008°55'3 5.5
2017-Dec-14 05:30N 44°22' E 008°58'2 4.6
2017-Dec-14 05:01N 44°20' E 008°58'2 3.4
2017-Dec-14 04:30N 44°18' E 008°59'4 7.4
2017-Dec-14 04:01N 44°15' E 008°56'3 6.8
2017-Dec-14 03:31N 44°12' E 008°54'0 0.8
2017-Dec-14 03:01N 44°12' E 008°54'0 0.8
2017-Dec-14 02:31N 44°11' E 008°53'0 0.9
2017-Dec-14 02:00N 44°11' E 008°53'1 1.7
2017-Dec-14 01:31N 44°11' E 008°52'1 1.4
2017-Dec-14 01:00N 44°11' E 008°51'1 1.2
2017-Dec-14 00:31N 44°11' E 008°50'1 2.2
2017-Dec-14 00:00N 44°12' E 008°51'3 6.5
2017-Dec-13 23:31N 44°14' E 008°54'3 5.1
2017-Dec-13 23:01N 44°15' E 008°57'1 1.7
2017-Dec-13 22:31N 44°14' E 008°56'1 1.7
2017-Dec-13 22:01N 44°14' E 008°55'1 1.5
2017-Dec-13 21:31N 44°13' E 008°55'1 1.5
2017-Dec-13 21:01N 44°13' E 008°54'1 1.4
2017-Dec-13 20:31N 44°13' E 008°53'1 1.3
2017-Dec-13 20:00N 44°12' E 008°52'0 1.0
2017-Dec-13 19:31N 44°12' E 008°52'0 0.8
2017-Dec-13 19:01N 44°12' E 008°52'0 0.8
2017-Dec-13 18:31N 44°11' E 008°51'0 0.8
2017-Dec-13 18:01N 44°11' E 008°51'0 0.9
2017-Dec-13 17:31N 44°10' E 008°52'5 9.3
2017-Dec-13 17:01N 44°10' E 008°58'612.1
2017-Dec-13 16:31N 44°10' E 009°07'612.2
2017-Dec-13 16:01N 44°08' E 009°14'612.6
2017-Dec-13 15:31N 44°02' E 009°19'612.6
2017-Dec-13 15:00N 43°58' E 009°25'612.3
2017-Dec-13 14:31N 43°53' E 009°31'612.0
2017-Dec-13 14:00N 43°49' E 009°36'5 9.8
2017-Dec-13 13:31N 43°47' E 009°43'612.0
2017-Dec-13 13:01N 43°52' E 009°48'612.0
2017-Dec-13 12:30N 43°58' E 009°51'611.2
2017-Dec-13 12:01N 44°03' E 009°52'3 6.4
2017-Dec-13 11:31N 44°06' E 009°51'0 0.0
2017-Dec-13 11:00N 44°06' E 009°51'0 0.0
2017-Dec-13 10:30N 44°06' E 009°51'0 0.0
2017-Dec-13 10:00N 44°06' E 009°51'0 0.0
2017-Dec-13 09:30N 44°06' E 009°51'0 0.0
2017-Dec-13 09:00N 44°06' E 009°51'0 0.0
2017-Dec-13 08:30N 44°06' E 009°51'0 0.0
2017-Dec-13 08:00N 44°06' E 009°51'0 0.0
2017-Dec-13 07:30N 44°06' E 009°51'0 0.0
2017-Dec-13 07:00N 44°06' E 009°51'0 0.0
2017-Dec-13 06:30N 44°06' E 009°51'0 0.0
2017-Dec-13 06:00N 44°06' E 009°51'0 0.0
2017-Dec-13 05:30N 44°06' E 009°51'0 0.0
2017-Dec-13 05:00N 44°06' E 009°51'0 0.0
2017-Dec-13 04:30N 44°06' E 009°51'0 0.0
2017-Dec-13 04:00N 44°06' E 009°51'0 0.0
2017-Dec-13 03:30N 44°06' E 009°51'0 0.0
2017-Dec-13 03:00N 44°06' E 009°51'0 0.0
2017-Dec-13 02:30N 44°06' E 009°51'0 0.0
2017-Dec-13 02:00N 44°06' E 009°51'0 0.0
2017-Dec-13 01:30N 44°06' E 009°51'0 0.0
2017-Dec-13 01:00N 44°06' E 009°51'0 0.0
2017-Dec-13 00:30N 44°06' E 009°51'0 0.0
2017-Dec-13 00:00N 44°06' E 009°51'0 0.0
2017-Dec-12 23:30N 44°06' E 009°51'0 0.0
2017-Dec-12 22:57N 44°06' E 009°51'0 0.0
2017-Dec-12 22:30N 44°06' E 009°51'0 0.0
2017-Dec-12 22:00N 44°06' E 009°51'0 0.0
2017-Dec-12 21:30N 44°06' E 009°51'0 0.0
2017-Dec-12 20:57N 44°06' E 009°51'0 0.0
2017-Dec-12 20:30N 44°06' E 009°51'0 0.0
2017-Dec-12 19:57N 44°06' E 009°51'0 0.0
2017-Dec-12 19:21N 44°06' E 009°51'0 0.0
2017-Dec-12 19:00N 44°06' E 009°51'0 0.0
2017-Dec-12 18:30N 44°06' E 009°51'0 0.0
2017-Dec-12 18:00N 44°06' E 009°51'0 0.0
2017-Dec-12 17:30N 44°06' E 009°51'0 0.0
2017-Dec-12 16:57N 44°06' E 009°51'0 0.0
2017-Dec-12 16:30N 44°06' E 009°51'0 0.0
2017-Dec-12 16:00N 44°06' E 009°51'0 0.0
2017-Dec-12 15:27N 44°06' E 009°51'0 0.0
2017-Dec-12 15:00N 44°06' E 009°51'0 0.0
2017-Dec-12 14:30N 44°06' E 009°51'0 0.0
2017-Dec-12 14:00N 44°06' E 009°51'0 0.0
2017-Dec-12 13:30N 44°06' E 009°51'0 0.0
2017-Dec-12 13:00N 44°06' E 009°51'1 1.9
2017-Dec-12 12:30N 44°05' E 009°51'4 7.5
2017-Dec-12 12:00N 44°02' E 009°54'2 4.1
2017-Dec-12 11:30N 44°01' E 009°56'5 9.2
2017-Dec-12 11:00N 43°56' E 009°56'1019.1
2017-Dec-12 10:30N 43°47' E 009°52'1121.8
2017-Dec-12 10:01N 43°37' E 009°48'1019.6
2017-Dec-12 09:30N 43°31' E 009°58'815.7
2017-Dec-12 09:01N 43°31' E 010°09'510.2
2017-Dec-12 08:31N 43°32' E 010°15'3 5.4
2017-Dec-12 08:01N 43°34' E 010°18'1 1.4
2017-Dec-12 07:29N 43°35' E 010°18'0 0.0
2017-Dec-12 06:59N 43°35' E 010°18'0 0.0
2017-Dec-12 06:29N 43°35' E 010°18'0 0.0
2017-Dec-12 05:59N 43°35' E 010°18'0 0.0
2017-Dec-12 05:29N 43°35' E 010°18'0 0.0
2017-Dec-12 04:59N 43°35' E 010°18'0 0.0
2017-Dec-12 04:26N 43°35' E 010°18'0 0.0
2017-Dec-12 03:56N 43°35' E 010°18'0 0.0
2017-Dec-12 03:29N 43°35' E 010°18'0 0.0
2017-Dec-12 02:59N 43°35' E 010°18'0 0.0
2017-Dec-12 02:29N 43°35' E 010°18'0 0.0
2017-Dec-12 01:59N 43°35' E 010°18'0 0.0
2017-Dec-12 01:29N 43°35' E 010°18'0 0.0
2017-Dec-12 00:59N 43°35' E 010°18'0 0.0
2017-Dec-12 00:29N 43°35' E 010°18'0 0.0
2017-Dec-11 23:59N 43°35' E 010°18'0 0.0
2017-Dec-11 23:29N 43°35' E 010°18'0 0.0
2017-Dec-11 22:53N 43°35' E 010°18'0 0.0
2017-Dec-11 22:26N 43°35' E 010°18'0 0.0
2017-Dec-11 21:50N 43°35' E 010°18'0 0.0
2017-Dec-11 21:29N 43°35' E 010°18'0 0.0
2017-Dec-11 20:59N 43°35' E 010°18'0 0.0
2017-Dec-11 20:26N 43°35' E 010°18'0 0.0
2017-Dec-11 19:59N 43°35' E 010°18'0 0.0
2017-Dec-11 19:29N 43°35' E 010°18'0 0.0
2017-Dec-11 18:59N 43°35' E 010°18'0 0.0
2017-Dec-11 18:29N 43°35' E 010°18'0 0.0
2017-Dec-11 17:59N 43°35' E 010°18'0 0.0
2017-Dec-11 17:29N 43°35' E 010°18'0 0.0
2017-Dec-11 16:53N 43°35' E 010°18'0 0.0
2017-Dec-11 16:28N 43°35' E 010°18'0 0.0
2017-Dec-11 15:59N 43°35' E 010°18'0 0.0
2017-Dec-11 15:29N 43°35' E 010°18'0 0.0
2017-Dec-11 14:59N 43°35' E 010°18'0 0.0
2017-Dec-11 14:29N 43°35' E 010°18'0 0.0
2017-Dec-11 13:59N 43°35' E 010°18'0 0.0
2017-Dec-11 13:29N 43°35' E 010°18'0 0.0
2017-Dec-11 12:59N 43°35' E 010°18'0 0.0
2017-Dec-11 12:29N 43°35' E 010°18'0 0.0
2017-Dec-11 11:56N 43°35' E 010°18'0 0.0
2017-Dec-11 11:29N 43°35' E 010°18'0 0.0
2017-Dec-11 10:59N 43°35' E 010°18'0 0.0
2017-Dec-11 10:29N 43°35' E 010°18'0 0.0
2017-Dec-11 09:58N 43°35' E 010°18'0 0.0
2017-Dec-11 09:26N 43°35' E 010°18'0 0.0
2017-Dec-11 08:56N 43°35' E 010°18'0 0.0
2017-Dec-11 08:20N 43°35' E 010°18'0 0.0
2017-Dec-11 07:49N 43°35' E 010°18'0 0.0
2017-Dec-11 07:29N 43°35' E 010°18'0 0.0
2017-Dec-11 06:59N 43°35' E 010°18'0 0.0
2017-Dec-11 06:29N 43°35' E 010°18'0 0.0
2017-Dec-11 05:59N 43°35' E 010°18'0 0.0
2017-Dec-11 05:23N 43°35' E 010°18'0 0.0
2017-Dec-11 04:59N 43°35' E 010°18'0 0.0
2017-Dec-11 04:29N 43°35' E 010°18'0 0.0
2017-Dec-11 03:58N 43°35' E 010°18'0 0.0
2017-Dec-11 03:29N 43°35' E 010°18'0 0.0
2017-Dec-11 02:56N 43°35' E 010°18'0 0.0
2017-Dec-11 02:29N 43°35' E 010°18'0 0.0
2017-Dec-11 01:59N 43°35' E 010°18'0 0.0
2017-Dec-11 01:26N 43°35' E 010°18'0 0.0
2017-Dec-11 00:56N 43°35' E 010°18'0 0.0
2017-Dec-11 00:29N 43°35' E 010°18'0 0.0
2017-Dec-10 23:59N 43°35' E 010°18'0 0.0
2017-Dec-10 23:29N 43°35' E 010°18'0 0.0
2017-Dec-10 22:59N 43°35' E 010°18'0 0.0
2017-Dec-10 22:29N 43°35' E 010°18'0 0.0
2017-Dec-10 21:56N 43°35' E 010°18'0 0.0
2017-Dec-10 21:29N 43°35' E 010°18'0 0.0
2017-Dec-10 20:59N 43°35' E 010°18'0 0.0
2017-Dec-10 20:29N 43°35' E 010°18'0 0.0
2017-Dec-10 19:56N 43°35' E 010°18'0 0.0
2017-Dec-10 19:29N 43°35' E 010°18'0 0.0
2017-Dec-10 18:56N 43°35' E 010°18'0 0.0
2017-Dec-10 18:25N 43°35' E 010°18'0 0.0
2017-Dec-10 17:59N 43°35' E 010°18'0 0.0
2017-Dec-10 17:29N 43°35' E 010°18'0 0.0
2017-Dec-10 16:56N 43°35' E 010°18'0 0.0
2017-Dec-10 16:17N 43°35' E 010°18'0 0.0
2017-Dec-10 15:50N 43°35' E 010°18'0 0.0
2017-Dec-10 15:26N 43°35' E 010°18'0 0.1
2017-Dec-10 14:56N 43°35' E 010°18'0 0.1
2017-Dec-10 14:29N 43°35' E 010°18'0 0.0
2017-Dec-10 13:59N 43°35' E 010°18'0 0.0
2017-Dec-10 13:29N 43°35' E 010°18'0 0.0
2017-Dec-10 12:59N 43°35' E 010°18'0 0.0
2017-Dec-10 12:26N 43°35' E 010°18'0 0.0
2017-Dec-10 11:59N 43°35' E 010°18'0 0.0
2017-Dec-10 11:26N 43°35' E 010°18'0 0.0
2017-Dec-10 10:53N 43°35' E 010°18'0 0.0
2017-Dec-10 10:29N 43°35' E 010°18'0 0.0
2017-Dec-10 09:59N 43°35' E 010°18'0 0.0
2017-Dec-10 09:29N 43°35' E 010°18'0 0.0
2017-Dec-10 08:59N 43°35' E 010°18'0 0.0
2017-Dec-10 08:29N 43°35' E 010°18'0 0.0
2017-Dec-10 07:59N 43°35' E 010°18'0 0.0
2017-Dec-10 07:29N 43°35' E 010°18'0 0.0
2017-Dec-10 06:55N 43°35' E 010°18'0 0.0
2017-Dec-10 06:29N 43°35' E 010°18'0 0.0
2017-Dec-10 05:58N 43°35' E 010°18'0 0.0
2017-Dec-10 05:29N 43°35' E 010°18'0 0.0
2017-Dec-10 04:59N 43°35' E 010°18'0 0.0
2017-Dec-10 04:29N 43°35' E 010°18'0 0.1
2017-Dec-10 03:58N 43°35' E 010°18'0 0.1
2017-Dec-10 03:29N 43°35' E 010°18'0 0.0
2017-Dec-10 02:59N 43°35' E 010°18'0 0.0
2017-Dec-10 02:29N 43°35' E 010°18'0 0.0
2017-Dec-10 01:58N 43°35' E 010°18'0 0.0
2017-Dec-10 01:29N 43°35' E 010°18'0 0.0
2017-Dec-10 00:53N 43°35' E 010°18'0 0.0
2017-Dec-10 00:11N 43°35' E 010°18'0 0.1
2017-Dec-09 23:59N 43°35' E 010°18'0 0.0
2017-Dec-09 23:29N 43°35' E 010°18'0 0.0
2017-Dec-09 22:59N 43°35' E 010°18'0 0.0
2017-Dec-09 22:29N 43°35' E 010°18'0 0.0
2017-Dec-09 21:53N 43°35' E 010°18'0 0.0
2017-Dec-09 21:28N 43°35' E 010°18'0 0.0
2017-Dec-09 20:59N 43°35' E 010°18'0 0.0
2017-Dec-09 20:29N 43°35' E 010°18'0 0.0
2017-Dec-09 19:59N 43°35' E 010°18'0 0.0
2017-Dec-09 19:29N 43°35' E 010°18'0 0.0
2017-Dec-09 18:56N 43°35' E 010°18'0 0.0
2017-Dec-09 18:23N 43°35' E 010°18'0 0.1
2017-Dec-09 18:00N 43°35' E 010°18'2 3.5
2017-Dec-09 17:30N 43°33' E 010°17'5 8.5
2017-Dec-09 16:56N 43°29' E 010°13'3 6.7
2017-Dec-09 16:30N 43°28' E 010°10'2 4.1
2017-Dec-09 16:00N 43°27' E 010°07'2 3.6
2017-Dec-09 15:26N 43°25' E 010°05'1 1.9
2017-Dec-09 15:00N 43°26' E 010°05'1 1.8
2017-Dec-09 14:31N 43°27' E 010°04'1 2.7
2017-Dec-09 14:01N 43°26' E 010°05'5 9.2
2017-Dec-09 13:31N 43°22' E 010°09'510.0
2017-Dec-09 13:01N 43°18' E 010°13'510.5
2017-Dec-09 12:30N 43°14' E 010°17'2 0.7
2017-Dec-09 09:46N 43°15' E 010°16'1 2.2
2017-Dec-09 09:25N 43°16' E 010°15'1 2.1
2017-Dec-09 08:43N 43°17' E 010°14'1 2.1
2017-Dec-09 08:28N 43°17' E 010°13'1 1.6
2017-Dec-09 07:59N 43°18' E 010°12'1 1.3
2017-Dec-09 07:27N 43°18' E 010°12'1 1.4
2017-Dec-09 06:57N 43°19' E 010°11'1 1.4
2017-Dec-09 06:29N 43°19' E 010°10'1 1.3
2017-Dec-09 05:59N 43°20' E 010°10'1 1.2
2017-Dec-09 05:29N 43°20' E 010°09'1 1.6
2017-Dec-09 04:58N 43°21' E 010°08'1 1.6
2017-Dec-09 04:31N 43°21' E 010°07'1 1.3
2017-Dec-09 03:59N 43°21' E 010°07'1 1.6
2017-Dec-09 03:27N 43°22' E 010°06'1 1.4
2017-Dec-09 03:00N 43°22' E 010°05'0 0.6
2017-Dec-09 02:31N 43°22' E 010°05'1 1.2
2017-Dec-09 02:00N 43°22' E 010°04'3 6.8
2017-Dec-09 01:30N 43°22' E 010°09'4 7.7
2017-Dec-09 01:00N 43°23' E 010°14'4 7.6
2017-Dec-09 00:30N 43°25' E 010°19'1 2.9
2017-Dec-09 00:01N 43°25' E 010°17'1 2.5
2017-Dec-08 23:31N 43°25' E 010°15'1 2.5
2017-Dec-08 23:00N 43°24' E 010°14'1 2.6
2017-Dec-08 22:29N 43°24' E 010°12'1 2.8
2017-Dec-08 21:59N 43°24' E 010°10'1 2.8
2017-Dec-08 21:30N 43°23' E 010°08'1 2.7
2017-Dec-08 21:00N 43°23' E 010°06'1 2.6
2017-Dec-08 20:30N 43°23' E 010°04'1 2.7
2017-Dec-08 20:01N 43°23' E 010°03'1 2.5
2017-Dec-08 19:25N 43°21' E 010°02'1 2.7
2017-Dec-08 19:01N 43°21' E 010°03'5 9.5
2017-Dec-08 18:31N 43°23' E 010°09'510.1
2017-Dec-08 18:00N 43°26' E 010°15'1 1.0
2017-Dec-08 17:28N 43°26' E 010°16'1 2.4
2017-Dec-08 17:01N 43°26' E 010°15'1 2.3
2017-Dec-08 16:31N 43°25' E 010°13'1 2.4
2017-Dec-08 16:00N 43°25' E 010°12'1 2.8
2017-Dec-08 15:30N 43°24' E 010°10'2 2.6
2017-Dec-08 14:55N 43°24' E 010°08'1 2.8
2017-Dec-08 14:27N 43°22' E 010°07'410.1
2017-Dec-08 14:01N 43°18' E 010°09'611.3
2017-Dec-08 13:28N 43°12' E 010°08'511.6
2017-Dec-08 13:00N 43°07' E 010°06'611.9
2017-Dec-08 12:31N 43°01' E 010°05'1811.6
2017-Dec-08 10:59N 42°43' E 010°03'612.0
2017-Dec-08 10:31N 42°40' E 010°08'611.7
2017-Dec-08 10:00N 42°36' E 010°14'712.0
2017-Dec-08 09:27N 42°31' E 010°21'1416.9
2017-Dec-08 08:37N 42°20' E 010°33'217.1
2017-Dec-08 08:30N 42°19' E 010°35'20617.7
2017-Dec-07 20:54N 40°32' E 014°29'918.6
2017-Dec-07 20:25N 40°36' E 014°40'  

Dump ship's entire track history